Time;durP1;ratioP1;P1;durP2;ratioP2;P2;SDS_P1;SDS_P2;PMS_P1;PMS_P2;Temp;Humidity;BMP_temperature;BMP_pressure;BME280_temperature;BME280_humidity;BME280_pressure;Samples;Min_cycle;Max_cycle;Signal;HPM_P1;HPM_P2
2023/10/13 00:00:29;;;;;;;;;16.75;9.00;;;;;20.73;75.39;101000.00;4955110;28;45481;-41
2023/10/13 00:02:56;;;;;;;;;8.50;8.00;;;;;20.72;75.13;101011.84;4954264;28;46293;-42
2023/10/13 00:05:21;;;;;;;;;10.20;6.40;;;;;20.63;75.13;100995.00;4954609;28;45483;-41
2023/10/13 00:07:46;;;;;;;;;12.00;10.75;;;;;20.71;75.05;101003.94;4955097;28;45764;-42
2023/10/13 00:10:12;;;;;;;;;13.00;10.25;;;;;20.68;75.57;101006.00;4954948;28;45322;-41
2023/10/13 00:12:37;;;;;;;;;7.75;7.75;;;;;20.62;75.39;101001.44;4954664;28;45442;-41
2023/10/13 00:15:06;;;;;;;;;17.50;10.00;;;;;20.59;75.72;100996.44;4954759;28;45619;-41
2023/10/13 00:17:38;;;;;;;;;9.00;9.00;;;;;20.58;75.83;101005.59;4954777;28;46131;-41
2023/10/13 00:20:11;;;;;;;;;13.00;9.25;;;;;20.60;75.85;100990.00;4954932;28;45454;-39
2023/10/13 00:22:40;;;;;;;;;12.75;11.00;;;;;20.60;75.84;100992.69;4954504;28;46642;-41
2023/10/13 00:25:06;;;;;;;;;8.25;7.75;;;;;20.60;75.80;100991.88;4957214;28;45484;-39
2023/10/13 00:27:36;;;;;;;;;13.00;12.00;;;;;20.54;76.20;100982.72;4958168;28;45339;-41
2023/10/13 00:32:55;;;;;;;;;11.75;9.25;;;;;20.52;75.91;100990.22;5038838;28;45355;-41
2023/10/13 00:35:26;;;;;;;;;17.20;9.80;;;;;20.53;75.54;100991.88;5038852;28;45446;-44
2023/10/13 00:37:55;;;;;;;;;12.00;10.00;;;;;20.49;76.39;100989.78;5038819;28;45218;-46
2023/10/13 00:43:31;;;;;;;;;12.75;10.25;;;;;20.43;76.85;100986.81;5038586;28;45972;-44
2023/10/13 00:46:06;;;;;;;;;11.20;10.00;;;;;20.34;76.31;100979.94;5038459;28;45226;-43
2023/10/13 00:48:42;;;;;;;;;14.50;11.25;;;;;20.43;76.81;100991.41;5038615;28;45297;-44
2023/10/13 00:51:22;;;;;;;;;10.00;9.00;;;;;20.39;76.46;100979.34;5038839;28;45554;-42
2023/10/13 00:53:48;;;;;;;;;14.00;11.25;;;;;20.42;76.39;100977.06;5038406;28;46227;-43
2023/10/13 00:56:27;;;;;;;;;16.50;12.00;;;;;20.39;76.86;100972.09;5038453;28;45360;-46
2023/10/13 00:58:57;;;;;;;;;13.50;12.50;;;;;20.42;76.22;100968.13;5038569;28;45377;-49
2023/10/13 01:01:29;;;;;;;;;11.50;10.50;;;;;20.38;76.47;100973.09;5038575;28;45510;-41
2023/10/13 01:04:02;;;;;;;;;18.00;11.00;;;;;20.38;76.86;100967.69;5038317;28;47390;-44
2023/10/13 01:06:29;;;;;;;;;11.25;10.25;;;;;20.30;76.73;100953.56;5038441;28;45340;-41
2023/10/13 01:09:03;;;;;;;;;13.25;10.75;;;;;20.31;77.26;100953.38;5038574;28;45439;-44
2023/10/13 01:11:35;;;;;;;;;16.25;10.25;;;;;20.31;77.35;100956.06;5020407;28;45372;-43
2023/10/13 01:14:02;;;;;;;;;12.25;10.50;;;;;20.31;77.05;100950.66;5038070;28;45381;-40
2023/10/13 01:16:30;;;;;;;;;9.75;9.25;;;;;20.28;77.82;100947.53;5038276;28;45471;-45
2023/10/13 01:18:59;;;;;;;;;12.50;9.00;;;;;20.23;78.29;100933.81;5038549;28;45289;-45
2023/10/13 01:21:27;;;;;;;;;16.75;11.00;;;;;20.24;78.06;100943.59;5038563;28;45387;-44
2023/10/13 01:23:53;;;;;;;;;17.50;11.50;;;;;20.19;77.90;100936.94;5038076;28;45442;-42
2023/10/13 01:26:24;;;;;;;;;12.25;10.25;;;;;20.18;77.91;100934.41;5038012;28;45347;-41
2023/10/13 01:28:50;;;;;;;;;10.75;9.25;;;;;20.17;77.81;100938.97;5038244;28;45430;-41
2023/10/13 01:31:27;;;;;;;;;13.25;12.00;;;;;20.13;78.78;100926.91;5038415;28;45370;-41
2023/10/13 01:33:54;;;;;;;;;15.00;9.50;;;;;20.14;78.38;100939.41;5037518;28;46226;-42
2023/10/13 01:36:22;;;;;;;;;12.75;12.00;;;;;20.13;78.19;100936.91;5037014;28;45341;-41
2023/10/13 01:38:49;;;;;;;;;12.00;11.00;;;;;20.13;78.58;100932.31;5037816;28;45313;-40
2023/10/13 01:41:15;;;;;;;;;12.00;12.00;;;;;20.11;78.86;100920.09;5038013;28;45398;-40
2023/10/13 01:43:40;;;;;;;;;12.50;10.25;;;;;20.10;78.15;100915.69;5037846;28;46315;-39
2023/10/13 01:46:06;;;;;;;;;15.00;11.75;;;;;20.11;78.22;100920.91;5037585;28;45434;-39
2023/10/13 01:48:32;;;;;;;;;15.00;11.75;;;;;20.09;78.32;100919.44;5038081;28;45414;-41
2023/10/13 01:51:00;;;;;;;;;16.75;12.00;;;;;20.07;78.89;100905.31;5037836;28;46068;-42
2023/10/13 01:53:28;;;;;;;;;14.75;10.75;;;;;20.07;79.18;100913.44;5036537;28;46332;-41
2023/10/13 01:55:57;;;;;;;;;13.25;11.50;;;;;20.03;78.54;100899.50;5037434;28;45522;-41
2023/10/13 01:58:22;;;;;;;;;12.25;10.75;;;;;20.03;79.02;100898.66;5019760;28;45424;-42
2023/10/13 02:00:49;;;;;;;;;12.25;11.00;;;;;20.01;79.04;100892.63;5037655;28;45514;-40
2023/10/13 02:03:15;;;;;;;;;18.25;12.50;;;;;20.02;79.00;100892.44;5037506;28;47153;-41
2023/10/13 02:05:48;;;;;;;;;11.25;10.25;;;;;20.02;78.68;100894.31;5037627;28;45593;-41
2023/10/13 02:08:27;;;;;;;;;12.75;12.75;;;;;19.92;78.87;100875.78;5037835;28;45334;-44
2023/10/13 02:10:56;;;;;;;;;20.00;16.25;;;;;19.96;79.76;100887.00;5036593;28;45408;-41
2023/10/13 02:13:24;;;;;;;;;14.75;12.50;;;;;19.96;79.43;100876.22;5035720;28;46201;-41
2023/10/13 02:15:56;;;;;;;;;15.25;10.00;;;;;19.97;79.52;100878.69;5037503;28;45474;-47
2023/10/13 02:18:26;;;;;;;;;12.25;11.00;;;;;19.95;79.34;100869.97;5037396;28;45295;-39
2023/10/13 02:20:55;;;;;;;;;12.00;10.50;;;;;19.97;79.63;100867.91;5037548;28;45450;-41
2023/10/13 02:23:25;;;;;;;;;15.50;11.50;;;;;19.94;79.77;100854.81;5037164;28;45626;-39
2023/10/13 02:26:00;;;;;;;;;13.20;10.00;;;;;19.98;79.11;100855.25;5036991;28;45501;-41
2023/10/13 02:28:28;;;;;;;;;12.25;11.50;;;;;19.96;78.93;100836.53;5037245;28;45516;-43
2023/10/13 02:30:54;;;;;;;;;14.00;9.75;;;;;19.93;79.04;100829.69;5019272;28;45349;-41
2023/10/13 02:33:22;;;;;;;;;10.00;8.25;;;;;19.96;79.42;100833.84;5036988;28;46543;-41
2023/10/13 02:35:53;;;;;;;;;17.00;11.75;;;;;19.94;79.95;100825.13;5037197;28;45387;-41
2023/10/13 02:38:27;;;;;;;;;15.50;12.75;;;;;19.94;79.69;100817.84;5037071;28;45403;-41
2023/10/13 02:40:54;;;;;;;;;10.75;7.00;;;;;19.94;80.16;100819.72;5035896;28;45401;-39
2023/10/13 02:43:21;;;;;;;;;12.00;9.50;;;;;19.90;79.46;100829.28;5036921;28;46496;-40
2023/10/13 02:45:57;;;;;;;;;18.00;11.00;;;;;19.89;79.75;100825.75;5036903;28;45337;-41
2023/10/13 02:48:23;;;;;;;;;14.00;10.75;;;;;19.89;79.80;100824.91;5035568;28;45371;-41
2023/10/13 02:50:57;;;;;;;;;13.00;11.75;;;;;19.86;79.92;100828.84;5036729;28;45569;-41
2023/10/13 02:53:23;;;;;;;;;11.50;10.50;;;;;19.87;79.70;100832.38;5036325;28;47538;-41
2023/10/13 02:55:50;;;;;;;;;15.75;12.50;;;;;19.86;79.95;100828.03;5036676;28;45418;-40
2023/10/13 02:58:16;;;;;;;;;19.25;13.25;;;;;19.82;80.14;100822.19;5036862;28;45513;-40
2023/10/13 03:00:41;;;;;;;;;16.75;12.50;;;;;19.83;79.66;100815.75;5036351;28;45462;-40
2023/10/13 03:03:07;;;;;;;;;12.00;10.00;;;;;19.83;80.14;100815.75;5036418;28;45359;-40
2023/10/13 03:05:35;;;;;;;;;14.50;11.50;;;;;19.83;79.76;100817.63;5036366;28;45473;-40
2023/10/13 03:08:04;;;;;;;;;16.50;13.25;;;;;19.80;80.26;100815.34;5036755;28;45395;-41
2023/10/13 03:10:29;;;;;;;;;12.75;11.25;;;;;19.77;80.42;100807.66;5036553;28;45530;-41
2023/10/13 03:12:56;;;;;;;;;14.75;11.50;;;;;19.74;80.38;100802.66;5036356;28;46397;-40
2023/10/13 03:15:29;;;;;;;;;18.00;10.75;;;;;19.76;80.70;100805.97;5036303;28;45367;-41
2023/10/13 03:17:55;;;;;;;;;15.25;12.75;;;;;19.77;80.45;100799.56;5018508;28;45495;-40
2023/10/13 03:20:42;;;;;;;;;12.50;10.25;;;;;19.73;80.03;100796.44;5036581;28;45528;-40
2023/10/13 03:23:09;;;;;;;;;14.00;10.00;;;;;19.79;79.83;100797.47;5035718;28;46044;-41
2023/10/13 03:25:42;;;;;;;;;16.25;11.75;;;;;19.80;79.99;100802.66;5036015;28;45447;-41
2023/10/13 03:28:11;;;;;;;;;19.25;12.25;;;;;19.78;80.91;100793.13;5036179;28;45447;-41
2023/10/13 03:30:38;;;;;;;;;10.75;6.25;;;;;19.75;80.55;100780.03;5036294;28;45403;-39
2023/10/13 03:33:11;;;;;;;;;17.75;14.00;;;;;19.76;80.54;100790.63;5035074;28;46215;-40
2023/10/13 03:35:37;;;;;;;;;12.75;12.75;;;;;19.75;80.09;100771.94;5036187;28;45183;-41
2023/10/13 03:38:04;;;;;;;;;18.25;13.00;;;;;19.71;80.19;100771.50;5036056;28;45411;-41
2023/10/13 03:45:42;;;;;;;;;16.25;11.25;;;;;19.70;80.47;100761.75;5036020;28;45514;-40
2023/10/13 03:51:06;;;;;;;;;15.25;11.00;;;;;19.62;80.87;100749.28;5036234;28;45340;-40
2023/10/13 03:53:54;;;;;;;;;16.75;10.25;;;;;19.55;80.07;100742.19;5035699;28;46485;-41
2023/10/13 03:56:40;;;;;;;;;19.00;11.75;;;;;19.61;80.59;100758.44;5035877;28;45368;-42
2023/10/13 03:59:09;;;;;;;;;10.50;8.75;;;;;19.61;80.58;100755.72;5037368;28;45383;-41
2023/10/13 04:04:11;;;;;;;;;15.50;11.50;;;;;19.61;80.05;100738.72;5039228;28;45419;-41
2023/10/13 04:17:27;;;;;;;;;12.25;11.25;;;;;19.48;79.64;100723.31;5039438;28;45236;-41
2023/10/13 04:52:12;;;;;;;;;13.75;13.00;;;;;19.54;74.47;100663.13;4938238;28;45471;-41
2023/10/13 04:55:09;;;;;;;;;13.25;12.50;;;;;19.57;73.50;100676.19;4938117;28;45290;-42
2023/10/13 04:57:46;;;;;;;;;12.25;12.25;;;;;19.53;73.13;100680.34;4937859;28;45572;-40
2023/10/13 06:29:58;;;;;;;;;19.00;16.75;;;;;19.29;71.77;100625.13;5037198;28;45356;-41
2023/10/13 06:32:26;;;;;;;;;21.50;19.00;;;;;19.34;71.32;100628.06;5037254;28;45410;-40
2023/10/13 06:34:58;;;;;;;;;14.25;14.25;;;;;19.38;71.56;100623.91;5036827;28;46591;-40
2023/10/13 06:37:32;;;;;;;;;17.75;16.25;;;;;19.40;70.82;100631.78;5036904;28;45475;-41
2023/10/13 06:40:22;;;;;;;;;19.75;17.50;;;;;19.41;71.01;100625.34;5036836;28;45387;-40
2023/10/13 06:42:45;;;;;;;;;19.25;16.75;;;;;19.42;70.92;100617.06;5036820;28;45353;-40
2023/10/13 06:45:12;;;;;;;;;20.33;18.33;;;;;19.54;70.56;100625.34;5018413;28;55732;-41
2023/10/13 06:47:44;;;;;;;;;17.33;17.33;;;;;19.63;70.32;100632.22;5036744;28;45326;-42
2023/10/13 06:50:16;;;;;;;;;17.25;14.50;;;;;19.65;69.23;100618.53;5036878;28;45372;-41
2023/10/13 06:52:42;;;;;;;;;20.25;15.75;;;;;19.71;68.64;100614.16;5037160;28;45308;-41
2023/10/13 06:55:20;;;;;;;;;19.25;16.25;;;;;19.78;68.60;100628.47;5036417;28;45694;-41
2023/10/13 06:57:46;;;;;;;;;17.75;16.25;;;;;19.80;67.78;100624.50;5036520;28;45483;-40
2023/10/13 07:00:25;;;;;;;;;13.75;13.25;;;;;19.84;67.82;100623.06;5036659;28;45443;-42
2023/10/13 07:02:52;;;;;;;;;23.50;17.50;;;;;19.88;67.81;100618.06;5036518;28;45556;-41
2023/10/13 07:05:19;;;;;;;;;20.00;19.00;;;;;19.90;66.74;100611.44;5036469;28;46264;-41
2023/10/13 07:07:44;;;;;;;;;20.50;18.75;;;;;19.94;66.43;100617.25;5036319;28;45365;-42
2023/10/13 07:10:11;;;;;;;;;18.25;12.75;;;;;20.02;66.95;100635.09;5036649;28;45296;-43
2023/10/13 07:12:38;;;;;;;;;15.00;14.50;;;;;20.03;65.46;100625.94;5036490;28;45391;-41
2023/10/13 07:15:10;;;;;;;;;15.75;14.50;;;;;20.10;65.43;100622.19;5036102;28;46405;-41
2023/10/13 07:17:40;;;;;;;;;18.25;13.00;;;;;20.14;65.41;100628.81;5036204;28;45384;-41
2023/10/13 07:20:15;;;;;;;;;14.50;14.50;;;;;20.16;64.67;100617.78;5016592;28;45530;-40
2023/10/13 07:22:54;;;;;;;;;19.25;16.25;;;;;20.22;64.79;100616.94;5036351;28;45624;-41
2023/10/13 07:25:25;;;;;;;;;19.50;13.50;;;;;20.29;64.39;100625.84;5036187;28;46420;-41
2023/10/13 07:27:50;;;;;;;;;19.25;15.00;;;;;20.37;63.48;100619.38;5035795;28;45493;-41
2023/10/13 07:30:19;;;;;;;;;23.00;17.25;;;;;20.47;63.92;100624.31;5036252;28;45192;-42
2023/10/13 07:32:45;;;;;;;;;16.50;13.50;;;;;20.53;63.59;100628.91;5036089;28;45609;-42
2023/10/13 07:35:19;;;;;;;;;27.50;18.50;;;;;20.62;63.33;100625.75;5034874;28;46888;-42
2023/10/13 07:37:48;;;;;;;;;13.25;13.00;;;;;20.72;62.37;100619.03;5035983;28;45323;-43
2023/10/13 07:42:52;;;;;;;;;16.50;14.25;;;;;20.81;61.71;100617.72;5036032;28;45259;-42
2023/10/13 07:45:21;;;;;;;;;18.75;16.50;;;;;20.80;61.78;100619.59;5035742;28;47671;-42
2023/10/13 07:47:48;;;;;;;;;21.00;15.00;;;;;20.79;61.58;100620.66;5035974;28;45371;-41
2023/10/13 07:50:13;;;;;;;;;16.50;16.00;;;;;20.81;61.43;100628.53;5017620;28;45415;-45
2023/10/13 07:52:58;;;;;;;;;20.25;15.00;;;;;20.83;61.67;100631.88;5036150;28;45411;-45
2023/10/13 07:55:23;;;;;;;;;17.50;16.00;;;;;20.77;61.17;100630.84;5023622;28;45360;-41
2023/10/13 07:57:55;;;;;;;;;11.50;11.50;;;;;20.85;61.80;100632.47;5032919;28;45390;-46
2023/10/13 08:03:31;;;;;;;;;18.00;14.75;;;;;21.00;60.74;100618.66;5033638;28;45447;-41
2023/10/13 08:06:07;;;;;;;;;17.75;14.50;;;;;20.98;61.43;100620.75;5033293;28;46302;-42
2023/10/13 08:08:39;;;;;;;;;15.25;14.50;;;;;21.02;60.33;100633.63;5033421;28;45411;-43
2023/10/13 08:11:25;;;;;;;;;12.50;12.50;;;;;21.05;60.68;100630.47;5033257;28;45403;-42
2023/10/13 08:13:54;;;;;;;;;16.25;12.00;;;;;21.10;60.39;100621.72;5032782;28;45685;-45
2023/10/13 08:16:21;;;;;;;;;17.00;14.75;;;;;21.10;59.57;100611.72;5032839;28;47293;-42
2023/10/13 08:18:50;;;;;;;;;21.75;15.75;;;;;21.15;59.08;100606.50;5033566;28;45578;-45
2023/10/13 08:21:31;;;;;;;;;13.00;11.00;;;;;21.23;60.40;100609.97;5033624;28;45796;-43
2023/10/13 08:23:58;;;;;;;;;17.50;13.25;;;;;21.34;59.30;100610.13;5033389;28;45458;-44
2023/10/13 08:37:28;;;;;;;;;14.00;11.00;;;;;21.63;57.11;100607.78;4951955;28;45536;-42
2023/10/13 08:39:58;;;;;;;;;17.25;16.25;;;;;21.65;57.43;100601.06;4951983;28;45474;-44
2023/10/13 08:53:31;;;;;;;;;14.25;12.75;;;;;22.36;55.99;100593.47;4955085;28;45666;-43
2023/10/13 09:12:19;;;;;;;;;16.60;15.80;;;;;23.65;51.80;100572.94;5035593;28;45863;-43
2023/10/13 09:14:58;;;;;;;;;21.00;14.40;;;;;23.68;51.91;100568.91;5036549;28;45447;-42
2023/10/13 09:25:34;;;;;;;;;15.20;10.80;;;;;26.97;45.82;100567.38;5036185;28;45380;-41
2023/10/13 09:28:02;;;;;;;;;13.20;12.20;;;;;28.41;42.53;100553.50;5036296;28;45352;-40
2023/10/13 09:30:31;;;;;;;;;12.40;10.60;;;;;28.40;42.03;100545.56;5035867;28;46951;-41
2023/10/13 09:33:04;;;;;;;;;11.60;9.40;;;;;27.47;44.30;100548.91;5036065;28;45459;-44
2023/10/13 09:35:33;;;;;;;;;17.00;14.00;;;;;26.94;43.72;100548.78;5036059;28;45385;-41
2023/10/13 09:38:03;;;;;;;;;13.40;12.80;;;;;26.83;44.27;100558.75;5037038;28;45411;-41
2023/10/13 09:43:04;;;;;;;;;15.60;10.20;;;;;29.41;41.65;100557.69;5036259;28;45511;-42
2023/10/13 09:45:43;;;;;;;;;13.20;10.60;;;;;30.33;38.04;100539.03;5035476;28;45449;-41
2023/10/13 09:48:21;;;;;;;;;16.60;11.60;;;;;31.25;37.01;100536.44;5036158;28;45360;-41
2023/10/13 09:50:50;;;;;;;;;16.20;11.00;;;;;31.71;37.20;100532.41;5036492;28;45463;-44
2023/10/13 09:53:18;;;;;;;;;15.60;11.00;;;;;32.03;35.28;100534.53;5036634;28;45747;-41
2023/10/13 09:56:13;;;;;;;;;13.80;11.60;;;;;32.76;37.29;100542.28;5036794;28;45407;-38
2023/10/13 09:59:13;;;;;;;;;12.40;10.40;;;;;33.25;33.70;100526.34;5018917;28;45578;-41
2023/10/13 10:01:57;;;;;;;;;14.60;13.40;;;;;32.72;33.94;100516.47;5036338;28;46484;-41
2023/10/13 10:04:23;;;;;;;;;13.40;10.40;;;;;33.06;33.31;100525.56;5036447;28;45472;-40
2023/10/13 10:06:56;;;;;;;;;13.40;10.80;;;;;32.90;33.22;100522.22;5036818;28;45520;-43
2023/10/13 10:09:34;;;;;;;;;10.40;9.80;;;;;32.05;36.79;100521.28;5036633;28;45398;-42
2023/10/13 10:12:18;;;;;;;;;14.60;12.00;;;;;30.97;35.93;100518.84;5036258;28;47172;-39
2023/10/13 10:15:28;;;;;;;;;5.20;4.00;;;;;30.66;35.64;100509.97;5036225;28;45429;-40
2023/10/13 10:17:54;;;;;;;;;14.00;12.40;;;;;31.06;34.81;100500.63;5036574;28;45320;-41
2023/10/13 10:20:39;;;;;;;;;14.00;12.40;;;;;32.09;33.57;100494.81;5036553;28;45767;-41
2023/10/13 10:23:05;;;;;;;;;12.00;12.00;;;;;32.48;32.62;100485.44;5036082;28;46254;-40
2023/10/13 10:25:35;;;;;;;;;12.25;12.00;;;;;31.93;34.42;100496.13;5035950;28;45360;-41
2023/10/13 10:28:05;;;;;;;;;13.40;13.20;;;;;31.69;35.83;100507.09;5035988;28;45448;-40
2023/10/13 10:30:38;;;;;;;;;12.40;11.20;;;;;31.05;34.39;100503.63;5036305;28;45297;-42
2023/10/13 10:35:42;;;;;;;;;13.80;12.20;;;;;30.86;35.13;100486.25;5035886;28;45361;-41
2023/10/13 10:38:13;;;;;;;;;29.40;21.00;;;;;31.07;35.82;100479.47;5035792;28;45544;-40
2023/10/13 10:40:56;;;;;;;;;17.00;14.40;;;;;31.54;35.30;100470.44;5036384;28;45214;-41
2023/10/13 10:43:25;;;;;;;;;13.00;13.00;;;;;31.98;35.54;100471.28;5035778;28;46089;-40
2023/10/13 10:45:51;;;;;;;;;20.60;16.80;;;;;32.36;33.82;100483.13;5035920;28;45333;-41
2023/10/13 10:48:17;;;;;;;;;14.50;11.50;;;;;32.50;34.34;100499.75;5035973;28;45388;-41
2023/10/13 10:50:53;;;;;;;;;10.60;10.20;;;;;32.13;34.07;100486.78;5036141;28;45468;-41
2023/10/13 10:53:22;;;;;;;;;19.00;14.80;;;;;32.04;35.91;100495.69;5035531;28;46449;-42
2023/10/13 10:55:48;;;;;;;;;9.20;8.80;;;;;32.40;35.88;100506.22;5035851;28;45403;-41
2023/10/13 10:58:28;;;;;;;;;12.25;8.50;;;;;33.01;34.31;100499.75;5035975;28;45341;-41
2023/10/13 11:01:18;;;;;;;;;12.40;10.60;;;;;34.28;33.60;100503.03;5035813;28;45404;-43
2023/10/13 11:06:58;;;;;;;;;13.60;10.20;;;;;34.34;30.79;100499.00;5035965;28;45439;-40
2023/10/13 11:15:15;;;;;;;;;7.20;7.20;;;;;38.09;26.44;100495.22;4949048;28;46612;-40
2023/10/13 11:17:50;;;;;;;;;9.80;9.80;;;;;38.65;24.80;100497.72;4954356;28;45502;-42
2023/10/13 11:20:18;;;;;;;;;13.00;10.00;;;;;39.11;23.64;100493.00;4954163;28;45513;-42
2023/10/13 11:22:47;;;;;;;;;9.40;9.40;;;;;38.59;24.65;100487.97;4953807;28;45526;-42
2023/10/13 11:25:29;;;;;;;;;11.40;9.60;;;;;37.88;26.94;100486.91;4950707;28;45446;-41
2023/10/13 11:27:58;;;;;;;;;13.80;11.40;;;;;38.38;25.92;100483.25;4942103;28;45526;-42
2023/10/13 11:30:40;;;;;;;;;10.80;9.20;;;;;38.63;24.29;100461.91;4951039;28;45493;-40
2023/10/13 11:33:10;;;;;;;;;10.00;10.00;;;;;38.85;24.58;100468.25;4953405;28;45494;-41
2023/10/13 11:38:34;;;;;;;;;15.20;11.80;;;;;39.16;25.39;100459.41;4953259;28;45399;-40
2023/10/13 11:48:37;;;;;;;;;7.80;7.80;;;;;34.59;29.25;100483.81;4948859;28;45474;-40
2023/10/13 11:51:09;;;;;;;;;10.80;10.20;;;;;33.51;30.15;100471.56;4979109;28;45418;-40
2023/10/13 11:53:35;;;;;;;;;10.60;10.60;;;;;32.73;31.27;100468.50;5032186;28;45446;-40
2023/10/13 11:56:11;;;;;;;;;10.40;9.20;;;;;31.85;32.79;100459.06;5033632;28;46617;-42
2023/10/13 11:58:38;;;;;;;;;12.20;8.80;;;;;31.09;33.43;100459.94;5033550;28;45462;-42
2023/10/13 12:04:30;;;;;;;;;9.40;9.00;;;;;30.47;34.60;100460.47;5033643;28;45870;-43
2023/10/13 12:11:50;;;;;;;;;9.20;8.40;;;;;28.62;38.15;100444.09;5033162;28;45791;-43
2023/10/13 12:14:21;;;;;;;;;10.20;8.60;;;;;28.44;38.41;100442.69;5032674;28;45461;-41
2023/10/13 12:16:52;;;;;;;;;10.40;10.00;;;;;28.30;38.99;100445.94;5032776;28;46552;-43
2023/10/13 12:19:23;;;;;;;;;14.40;10.80;;;;;28.36;38.62;100433.13;5033089;28;45491;-42
2023/10/13 12:21:49;;;;;;;;;13.60;12.00;;;;;28.57;38.39;100433.97;5036621;28;45477;-42
2023/10/13 12:26:58;;;;;;;;;11.80;11.80;;;;;28.39;38.62;100418.88;5036371;28;45710;-41
2023/10/13 12:29:28;;;;;;;;;11.25;8.50;;;;;28.24;39.14;100427.06;5036232;28;45466;-41
2023/10/13 12:32:12;;;;;;;;;7.60;7.60;;;;;28.04;39.34;100411.44;5036707;28;45618;-40
2023/10/13 12:37:38;;;;;;;;;9.60;8.00;;;;;27.95;39.73;100413.88;5034804;28;45671;-41
2023/10/13 12:51:40;;;;;;;;;7.00;7.00;;;;;28.16;39.79;100381.09;5035997;28;45499;-41
2023/10/13 12:54:16;;;;;;;;;14.00;10.20;;;;;28.24;39.18;100396.97;5036141;28;45446;-41
2023/10/13 12:56:41;;;;;;;;;7.80;7.80;;;;;28.25;39.48;100368.53;5036045;28;45585;-43
2023/10/13 12:59:09;;;;;;;;;12.75;9.00;;;;;28.37;38.75;100380.06;5035776;28;46610;-43
2023/10/13 13:01:35;;;;;;;;;10.60;9.40;;;;;28.33;39.62;100389.88;5020087;28;45462;-43
2023/10/13 13:04:03;;;;;;;;;16.00;11.75;;;;;28.20;40.16;100377.56;5056155;28;45423;-45
2023/10/13 13:06:29;;;;;;;;;7.60;7.60;;;;;28.01;39.93;100366.31;5056222;28;45912;-40
2023/10/13 13:08:59;;;;;;;;;11.40;8.40;;;;;27.92;40.14;100380.78;5055994;28;45958;-43
2023/10/13 13:11:28;;;;;;;;;10.40;9.00;;;;;27.83;40.63;100388.72;5056070;28;45608;-43
2023/10/13 13:13:53;;;;;;;;;14.60;9.60;;;;;27.83;40.21;100389.53;5056091;28;45420;-42
2023/10/13 13:16:23;;;;;;;;;10.00;8.25;;;;;27.82;40.41;100382.41;5055902;28;45841;-43
2023/10/13 13:18:49;;;;;;;;;10.40;7.00;;;;;27.83;40.34;100377.78;5055980;28;46503;-44
2023/10/13 13:21:22;;;;;;;;;17.50;9.00;;;;;27.78;40.06;100377.75;5055660;28;45496;-41
2023/10/13 13:23:48;;;;;;;;;10.40;9.60;;;;;27.70;40.85;100370.06;5055967;28;45443;-42
2023/10/13 13:26:17;;;;;;;;;6.50;5.00;;;;;27.58;40.97;100371.13;5055974;28;45707;-41
2023/10/13 13:28:43;;;;;;;;;12.00;8.40;;;;;27.46;41.21;100369.69;5047436;28;46251;-41
2023/10/13 13:31:12;;;;;;;;;13.40;9.40;;;;;27.29;41.18;100335.22;5034501;28;45675;-42
2023/10/13 13:33:38;;;;;;;;;15.20;10.00;;;;;27.27;41.50;100356.53;5035516;28;46039;-40
2023/10/13 13:36:07;;;;;;;;;13.40;10.60;;;;;27.17;41.62;100355.66;5042203;28;45690;-42
2023/10/13 13:38:33;;;;;;;;;12.00;9.40;;;;;27.06;41.73;100350.13;5045256;28;46553;-42
2023/10/13 13:41:01;;;;;;;;;12.75;9.25;;;;;26.94;41.77;100346.78;5052476;28;45557;-40
2023/10/13 13:43:38;;;;;;;;;8.40;8.40;;;;;26.86;41.96;100350.81;5055419;28;45478;-40
2023/10/13 13:46:09;;;;;;;;;12.60;6.20;;;;;26.79;42.40;100341.22;5055719;28;45970;-43
2023/10/13 13:48:38;;;;;;;;;12.00;11.00;;;;;26.70;42.36;100351.00;5055383;28;46517;-42
2023/10/13 13:51:14;;;;;;;;;13.20;9.40;;;;;26.65;42.81;100346.34;5035671;28;45471;-41
2023/10/13 13:53:47;;;;;;;;;13.60;8.00;;;;;26.57;42.34;100344.09;5035201;28;45645;-42
2023/10/13 13:56:18;;;;;;;;;13.00;10.40;;;;;26.54;42.69;100344.59;5035470;28;45521;-41
2023/10/13 13:58:44;;;;;;;;;9.40;8.00;;;;;26.42;43.17;100341.22;5034811;28;46314;-40
2023/10/13 14:01:18;;;;;;;;;9.60;9.60;;;;;26.35;43.16;100327.81;5034922;28;45469;-42
2023/10/13 14:03:45;;;;;;;;;17.40;9.80;;;;;26.23;43.70;100336.19;5035282;28;45479;-40
2023/10/13 14:06:18;;;;;;;;;9.40;9.00;;;;;26.17;43.79;100342.69;5034783;28;45451;-41
2023/10/13 14:08:56;;;;;;;;;11.40;8.60;;;;;26.07;43.79;100335.22;5035136;28;47016;-42
2023/10/13 14:16:53;;;;;;;;;18.20;9.60;;;;;26.03;43.74;100325.91;5035468;28;45468;-43
2023/10/13 14:19:26;;;;;;;;;13.40;10.40;;;;;26.00;43.43;100317.41;5034854;28;47263;-42
2023/10/13 14:21:55;;;;;;;;;13.00;10.40;;;;;26.01;43.92;100317.19;5035225;28;45241;-42
2023/10/13 14:24:28;;;;;;;;;17.00;10.00;;;;;26.00;44.09;100298.34;5034982;28;45451;-43
2023/10/13 14:27:13;;;;;;;;;13.20;10.60;;;;;26.01;43.79;100319.09;5035102;28;46356;-40
2023/10/13 14:29:40;;;;;;;;;15.60;11.80;;;;;25.88;43.89;100312.97;5034132;28;46388;-40
2023/10/13 14:32:07;;;;;;;;;14.80;11.00;;;;;25.85;44.03;100310.75;5033599;28;45588;-41
2023/10/13 14:34:35;;;;;;;;;12.20;11.80;;;;;25.78;44.48;100317.50;5016560;28;45639;-41
2023/10/13 14:37:00;;;;;;;;;11.40;11.40;;;;;25.76;44.47;100306.03;5034716;28;45587;-41
2023/10/13 14:39:29;;;;;;;;;18.75;11.50;;;;;25.72;44.18;100305.72;5034472;28;45623;-45
2023/10/13 14:41:55;;;;;;;;;12.20;11.40;;;;;25.69;45.25;100305.41;5034734;28;45598;-41
2023/10/13 14:44:25;;;;;;;;;13.50;11.50;;;;;25.66;45.11;100297.72;5034388;28;45383;-43
2023/10/13 14:46:54;;;;;;;;;11.80;10.80;;;;;25.61;45.18;100307.50;5033997;28;45859;-41
2023/10/13 14:49:20;;;;;;;;;15.40;11.20;;;;;25.54;45.24;100296.00;5034373;28;46131;-40
2023/10/13 14:51:45;;;;;;;;;20.25;14.25;;;;;25.52;44.79;100295.41;5034452;28;45547;-40
2023/10/13 14:54:10;;;;;;;;;15.50;13.00;;;;;25.48;45.28;100293.47;5033591;28;45329;-40
2023/10/13 14:56:36;;;;;;;;;16.25;13.50;;;;;25.42;45.10;100280.88;5034542;28;45277;-41
2023/10/13 14:59:04;;;;;;;;;19.75;14.00;;;;;25.43;45.43;100283.34;5033994;28;45413;-42
2023/10/13 15:01:31;;;;;;;;;13.20;12.00;;;;;25.23;46.00;100266.78;5033683;28;45522;-42
2023/10/13 15:03:57;;;;;;;;;14.60;12.60;;;;;25.36;45.50;100285.44;5034206;28;45476;-40
2023/10/13 15:06:25;;;;;;;;;14.60;13.00;;;;;25.33;45.98;100280.53;5033867;28;45568;-41
2023/10/13 15:08:53;;;;;;;;;13.60;11.60;;;;;25.34;46.27;100280.25;5033588;28;46141;-40
2023/10/13 15:11:19;;;;;;;;;14.40;13.00;;;;;25.33;46.31;100289.50;5034046;28;45396;-42
2023/10/13 15:13:44;;;;;;;;;19.00;14.75;;;;;25.33;46.45;100277.81;5033859;28;45610;-41
2023/10/13 15:16:18;;;;;;;;;17.00;13.25;;;;;25.37;45.94;100262.59;5033694;28;45472;-41
2023/10/13 15:18:51;;;;;;;;;19.40;15.40;;;;;25.39;45.94;100254.97;5033821;28;45858;-41
2023/10/13 15:21:22;;;;;;;;;15.80;15.00;;;;;25.41;46.17;100258.28;5033640;28;45537;-42
2023/10/13 15:23:55;;;;;;;;;14.40;12.60;;;;;25.43;46.34;100252.56;5033693;28;45432;-41
2023/10/13 15:26:23;;;;;;;;;15.40;13.20;;;;;25.40;46.31;100262.06;5034080;28;45539;-42
2023/10/13 15:28:48;;;;;;;;;13.40;11.00;;;;;25.39;46.27;100272.13;5033283;28;46205;-41
2023/10/13 15:31:25;;;;;;;;;14.50;13.00;;;;;25.38;46.13;100261.50;5033404;28;45674;-41
2023/10/13 15:33:52;;;;;;;;;10.80;10.80;;;;;25.35;46.51;100275.63;5033841;28;45438;-42
2023/10/13 15:36:19;;;;;;;;;17.50;14.75;;;;;25.24;46.23;100255.66;5033715;28;45571;-42
2023/10/13 15:38:46;;;;;;;;;17.60;10.80;;;;;25.29;46.57;100268.50;5033268;28;46600;-41
2023/10/13 15:41:12;;;;;;;;;13.60;12.60;;;;;25.21;46.79;100256.16;5033237;28;45391;-42
2023/10/13 15:43:41;;;;;;;;;16.75;12.00;;;;;25.28;46.99;100275.00;5033488;28;45439;-42